Esparreguera, Spain
Current Conditions -  °F | °C
As of 4:00 PM on Tuesday 21 Oct 2014 (Local Time) from LELL Reporting Station
Clear Clear  
Wind Chill: 75°   Ceiling: Unl
Heat Index: 75°   Visibility: 6mi
Dew Point: 61°   Wind: 5mph
Humidity: 61%   Direction: 140°SE
Pressure: 30.06"   Gusts: NA
Location:  41.53°N, 1.87°E
Report Text: LELL 211400Z 14004KT 110V190 CAVOK 24/16 Q1018
Loading
Personal Weather Stations






























Interactive Weather Map
Tropical Storm Tracking
New forecast layout! Learn more

10-Day Weather Forecast

Advertisements
Track Severe Weather on mobile